YFC72 WSSL-WSSL

Flight info

Callsign YFC72
Flight time 0h 12m
Altitude 10500
Route LATA CCTS
Aircraft DA40/L-VGD/A

Departure

Time 2026-05-05 14:19
Airport Seletar Airport (WSSL)

Arrival

Time 2026-05-05 14:32
Airport Seletar Airport (WSSL)
Time Latitude Longitude Altitude Speed Heading
2026-05-05 14:09 1.41439 103.86372 49 ft 0 kts 149°
2026-05-05 14:14 1.41427 103.86379 49 ft 5 kts 148°
2026-05-05 14:14 1.41411 103.86396 49 ft 3 kts 81°
2026-05-05 14:14 1.41446 103.86420 49 ft 12 kts 35°
2026-05-05 14:14 1.41496 103.86465 49 ft 6 kts 33°
2026-05-05 14:15 1.41517 103.86479 49 ft 0 kts
2026-05-05 14:17 1.41552 103.86497 49 ft 7 kts 30°
2026-05-05 14:17 1.41565 103.86523 49 ft 4 kts 114°
2026-05-05 14:17 1.41541 103.86559 49 ft 8 kts 123°
2026-05-05 14:17 1.41502 103.86626 50 ft 8 kts 89°
2026-05-05 14:18 1.41533 103.86658 49 ft 10 kts 32°
2026-05-05 14:18 1.41637 103.86725 48 ft 36 kts 33°
2026-05-05 14:18 1.41947 103.86928 54 ft 65 kts 30°
2026-05-05 14:18 1.42350 103.87180 138 ft 73 kts 30°
2026-05-05 14:19 1.42788 103.87438 325 ft 74 kts 29°
2026-05-05 14:19 1.43252 103.87692 516 ft 78 kts 27°
2026-05-05 14:19 1.43796 103.87773 664 ft 87 kts 339°
2026-05-05 14:19 1.44175 103.87325 882 ft 88 kts 295°
2026-05-05 14:20 1.44019 103.86750 1062 ft 95 kts 229°
2026-05-05 14:20 1.43515 103.86376 1386 ft 82 kts 210°
2026-05-05 14:20 1.42993 103.86069 1554 ft 93 kts 213°
2026-05-05 14:20 1.42392 103.85698 1636 ft 109 kts 213°
2026-05-05 14:21 1.41723 103.85253 1685 ft 121 kts 216°
2026-05-05 14:21 1.40999 103.84740 1615 ft 135 kts 216°
2026-05-05 14:21 1.40229 103.84170 1605 ft 138 kts 218°
2026-05-05 14:21 1.39471 103.83605 1613 ft 137 kts 217°
2026-05-05 14:22 1.38696 103.83025 1581 ft 140 kts 218°
2026-05-05 14:22 1.38127 103.82318 1679 ft 132 kts 263°
2026-05-05 14:22 1.38084 103.81420 1833 ft 118 kts 271°
2026-05-05 14:22 1.38093 103.80661 2117 ft 104 kts 274°
2026-05-05 14:23 1.38140 103.79959 2341 ft 100 kts 278°
2026-05-05 14:23 1.38237 103.79271 2538 ft 97 kts 284°
2026-05-05 14:23 1.38546 103.78705 2724 ft 96 kts 324°
2026-05-05 14:23 1.39179 103.78410 2820 ft 104 kts 342°
2026-05-05 14:24 1.39909 103.78154 2782 ft 119 kts 344°
2026-05-05 14:24 1.40479 103.77842 3350 ft 63 kts 277°
2026-05-05 14:24 1.40080 103.77352 3146 ft 111 kts 212°
2026-05-05 14:24 1.39335 103.77130 3128 ft 115 kts 179°
2026-05-05 14:25 1.38537 103.77156 3165 ft 115 kts 175°
2026-05-05 14:25 1.37747 103.77269 3210 ft 112 kts 151°
2026-05-05 14:25 1.37456 103.77923 3193 ft 112 kts 72°
2026-05-05 14:25 1.38003 103.78257 3140 ft 93 kts 352°
2026-05-05 14:26 1.38525 103.78156 3180 ft 60 kts 351°
2026-05-05 14:26 1.39026 103.78012 3125 ft 84 kts 343°
2026-05-05 14:26 1.39620 103.77758 3144 ft 107 kts 314°
2026-05-05 14:26 1.39443 103.77149 3152 ft 103 kts 196°
2026-05-05 14:27 1.38839 103.77166 3241 ft 72 kts 172°
2026-05-05 14:27 1.38416 103.77208 3153 ft 68 kts 171°
2026-05-05 14:27 1.37868 103.77281 3194 ft 88 kts 168°
2026-05-05 14:27 1.37187 103.77415 3204 ft 109 kts 166°
2026-05-05 14:28 1.36676 103.77940 3150 ft 119 kts 111°
2026-05-05 14:28 1.36284 103.78780 2825 ft 144 kts 114°
2026-05-05 14:28 1.35846 103.79721 2495 ft 155 kts 114°
2026-05-05 14:28 1.35384 103.80712 2197 ft 153 kts 115°
2026-05-05 14:29 1.34991 103.81605 1819 ft 128 kts 105°
2026-05-05 14:29 1.35062 103.82388 1601 ft 105 kts 58°
2026-05-05 14:29 1.35583 103.82818 1450 ft 97 kts 34°
2026-05-05 14:29 1.36156 103.83164 1369 ft 98 kts 30°
2026-05-05 14:30 1.36743 103.83530 1270 ft 100 kts 32°
2026-05-05 14:30 1.37334 103.83919 1128 ft 105 kts 34°
2026-05-05 14:30 1.37959 103.84331 939 ft 111 kts 34°
2026-05-05 14:30 1.38567 103.84743 724 ft 101 kts 33°
2026-05-05 14:31 1.39085 103.85078 615 ft 79 kts 29°
2026-05-05 14:31 1.39545 103.85359 455 ft 76 kts 33°
2026-05-05 14:31 1.39988 103.85652 324 ft 76 kts 32°
2026-05-05 14:31 1.40426 103.85937 201 ft 76 kts 32°
2026-05-05 14:32 1.40866 103.86224 59 ft 74 kts 31°
2026-05-05 14:32 1.41219 103.86454 49 ft 46 kts 34°
2026-05-05 14:32 1.41398 103.86571 49 ft 23 kts 32°
2026-05-05 14:32 1.41482 103.86621 50 ft 6 kts
2026-05-05 14:33 1.41514 103.86600 50 ft 8 kts 305°
2026-05-05 14:33 1.41561 103.86528 49 ft 10 kts 300°
2026-05-05 14:33 1.41571 103.86489 49 ft 4 kts 230°
2026-05-05 14:33 1.41541 103.86470 49 ft 6 kts 211°
2026-05-05 14:34 1.41512 103.86452 49 ft 4 kts 214°
2026-05-05 14:34 1.41488 103.86435 49 ft 4 kts 212°
2026-05-05 14:34 1.41475 103.86421 49 ft 2 kts 275°
2026-05-05 14:34 1.41477 103.86402 49 ft 1 kts 244°
2026-05-05 14:35 1.41467 103.86385 49 ft 3 kts 239°
2026-05-05 14:35 1.41456 103.86377 49 ft 1 kts 153°
2026-05-05 14:35 1.41446 103.86384 49 ft 0 kts 148°
2026-05-05 14:37 1.41426 103.86396 49 ft 4 kts 140°
2026-05-05 14:38 1.41439 103.86416 49 ft 10 kts 32°
2026-05-05 14:38 1.41497 103.86466 49 ft 12 kts 33°
2026-05-05 14:38 1.41551 103.86501 49 ft 7 kts 34°
2026-05-05 14:38 1.41570 103.86514 49 ft 1 kts 69°
2026-05-05 14:39 1.41569 103.86518 49 ft 2 kts 121°
2026-05-05 14:39 1.41566 103.86524 49 ft 0 kts 123°
2026-05-05 14:40 1.41566 103.86523 49 ft 0 kts 123°
2026-05-05 14:41 1.41563 103.86527 49 ft 3 kts 122°
2026-05-05 14:41 1.41549 103.86548 49 ft 2 kts 124°
2026-05-05 14:43 1.41547 103.86551 49 ft 5 kts 123°
2026-05-05 14:43 1.41510 103.86607 50 ft 10 kts 125°
2026-05-05 14:44 1.41496 103.86636 50 ft 1 kts 49°
2026-05-05 14:44 1.41539 103.86662 49 ft 23 kts 33°
2026-05-05 14:44 1.41823 103.86848 52 ft 71 kts 33°
2026-05-05 14:44 1.42309 103.87169 130 ft 87 kts 35°
2026-05-05 14:45 1.42711 103.87443 489 ft 70 kts 33°
2026-05-05 14:45 1.43159 103.87469 648 ft 75 kts 319°
2026-05-05 14:45 1.43436 103.87001 813 ft 83 kts 299°
2026-05-05 14:45 1.43466 103.86370 814 ft 107 kts 236°
2026-05-05 14:46 1.42863 103.85875 881 ft 118 kts 215°
2026-05-05 14:46 1.42406 103.85563 929 ft 122 kts 214°
2026-05-05 14:46 1.41541 103.84921 1282 ft 109 kts 217°
2026-05-05 14:46 1.40968 103.84435 1514 ft 107 kts 219°
2026-05-05 14:47 1.40593 103.84129 1716 ft 100 kts 216°
2026-05-05 14:47 1.39921 103.83665 1587 ft 128 kts 213°
2026-05-05 14:47 1.39146 103.83184 1604 ft 132 kts 211°
2026-05-05 14:47 1.38075 103.82555 1597 ft 137 kts 213°
2026-05-05 14:48 1.37649 103.82109 1633 ft 134 kts 243°
2026-05-05 14:48 1.37473 103.81194 1566 ft 139 kts 265°
2026-05-05 14:48 1.37342 103.80286 1891 ft 81 kts 240°
2026-05-05 14:48 1.36993 103.80502 2142 ft 96 kts 111°
2026-05-05 14:49 1.36983 103.81107 2371 ft 83 kts 34°
2026-05-05 14:49 1.37578 103.81305 2460 ft 98 kts 17°
2026-05-05 14:49 1.38183 103.81675 2482 ft 110 kts 39°
2026-05-05 14:49 1.38756 103.82204 2550 ft 113 kts 38°
2026-05-05 14:50 1.39484 103.82234 2518 ft 103 kts 324°
2026-05-05 14:50 1.39463 103.81676 2497 ft 85 kts 221°
2026-05-05 14:50 1.38929 103.81665 2532 ft 80 kts 180°
2026-05-05 14:50 1.38321 103.81653 2586 ft 97 kts 173°
2026-05-05 14:51 1.37607 103.81737 2600 ft 105 kts 172°
2026-05-05 14:51 1.36887 103.81922 2515 ft 114 kts 143°
2026-05-05 14:51 1.36653 103.82578 2661 ft 94 kts 66°
2026-05-05 14:51 1.37180 103.82729 2747 ft 94 kts 324°
2026-05-05 14:52 1.37504 103.82151 2771 ft 101 kts 294°
2026-05-05 14:52 1.37765 103.81470 2739 ft 108 kts 290°
2026-05-05 14:52 1.37990 103.80733 2723 ft 112 kts 287°
2026-05-05 14:52 1.38195 103.79978 2696 ft 114 kts 286°
2026-05-05 14:53 1.38397 103.79192 2630 ft 119 kts 287°
2026-05-05 14:53 1.38756 103.78468 2573 ft 119 kts 297°
2026-05-05 14:53 1.38582 103.77776 2602 ft 107 kts 216°
2026-05-05 14:53 1.37907 103.77719 2619 ft 99 kts 153°
2026-05-05 14:54 1.37447 103.78197 2617 ft 95 kts 120°
2026-05-05 14:54 1.37124 103.78763 2627 ft 96 kts 115°
2026-05-05 14:54 1.36833 103.79364 2623 ft 95 kts 113°
2026-05-05 14:54 1.36617 103.79991 2612 ft 95 kts 90°
2026-05-05 14:55 1.36990 103.80433 2612 ft 95 kts
2026-05-05 14:55 1.37447 103.80009 2599 ft 97 kts 284°
2026-05-05 14:55 1.37573 103.79358 2632 ft 95 kts 279°
2026-05-05 14:55 1.37653 103.78702 2635 ft 95 kts 278°
2026-05-05 14:56 1.37725 103.78051 2644 ft 97 kts 277°
2026-05-05 14:56 1.37824 103.77372 2584 ft 103 kts 260°
2026-05-05 14:56 1.37305 103.77052 2630 ft 95 kts 161°
2026-05-05 14:56 1.37015 103.77573 2611 ft 94 kts 90°
2026-05-05 14:57 1.37005 103.78224 2623 ft 92 kts 89°
2026-05-05 14:57 1.37023 103.78865 2618 ft 93 kts 85°
2026-05-05 14:57 1.37081 103.79524 2583 ft 95 kts 82°
2026-05-05 14:57 1.37177 103.80162 2587 ft 94 kts 78°
2026-05-05 14:58 1.37419 103.80759 2605 ft 92 kts 37°
2026-05-05 14:58 1.37983 103.80634 2604 ft 94 kts 302°
2026-05-05 14:58 1.37946 103.80022 2631 ft 93 kts 240°
2026-05-05 14:58 1.37618 103.79458 2614 ft 96 kts 238°
2026-05-05 14:59 1.37246 103.78902 2606 ft 98 kts 235°
2026-05-05 14:59 1.36840 103.78348 2604 ft 99 kts 231°
2026-05-05 14:59 1.36234 103.78248 2549 ft 98 kts 137°
2026-05-05 14:59 1.36142 103.78855 2579 ft 91 kts 72°
2026-05-05 15:00 1.36350 103.79421 2638 ft 86 kts 67°
2026-05-05 15:00 1.36517 103.79798 2625 ft 89 kts 65°
2026-05-05 15:00 1.36923 103.80528 2606 ft 92 kts 56°
2026-05-05 15:00 1.37293 103.81035 2620 ft 91 kts 53°
2026-05-05 15:01 1.37687 103.81523 2636 ft 90 kts 51°
2026-05-05 15:01 1.38228 103.81732 2615 ft 93 kts 334°
2026-05-05 15:01 1.38429 103.81151 2611 ft 97 kts 254°
2026-05-05 15:01 1.38151 103.80545 2634 ft 95 kts 242°
2026-05-05 15:02 1.37819 103.79967 2621 ft 97 kts 239°
2026-05-05 15:02 1.37444 103.79394 2615 ft 98 kts 237°
2026-05-05 15:02 1.37069 103.78814 2609 ft 99 kts 234°
2026-05-05 15:02 1.36748 103.78223 2628 ft 96 kts 261°
2026-05-05 15:03 1.36973 103.77643 2656 ft 91 kts 323°
2026-05-05 15:03 1.37553 103.77578 2671 ft 90 kts 32°
2026-05-05 15:03 1.37806 103.78122 2672 ft 89 kts 84°
2026-05-05 15:03 1.37857 103.78775 2613 ft 95 kts 85°
2026-05-05 15:04 1.37910 103.79422 2634 ft 93 kts 85°
2026-05-05 15:04 1.37983 103.80061 2648 ft 91 kts 81°
2026-05-05 15:04 1.38071 103.80688 2643 ft 92 kts 81°
2026-05-05 15:04 1.38165 103.81321 2639 ft 93 kts 87°
2026-05-05 15:05 1.37229 103.81745 2586 ft 102 kts 198°
2026-05-05 15:05 1.36531 103.81511 2501 ft 109 kts 198°
2026-05-05 15:05 1.35835 103.81270 2346 ft 102 kts 199°
2026-05-05 15:06 1.35151 103.81074 2124 ft 103 kts 182°
2026-05-05 15:06 1.34562 103.81421 1829 ft 105 kts 117°
2026-05-05 15:06 1.34554 103.82110 1630 ft 99 kts 64°
2026-05-05 15:06 1.35065 103.82533 1463 ft 95 kts 26°
2026-05-05 15:07 1.35631 103.82825 1381 ft 87 kts 30°
2026-05-05 15:07 1.36145 103.83132 1327 ft 86 kts 33°
2026-05-05 15:07 1.36652 103.83436 1283 ft 84 kts 32°
2026-05-05 15:07 1.37178 103.83750 1245 ft 99 kts 30°
2026-05-05 15:08 1.37745 103.84078 1091 ft 95 kts 33°
2026-05-05 15:08 1.38288 103.84462 882 ft 95 kts 38°
2026-05-05 15:08 1.38794 103.84830 700 ft 88 kts 36°
2026-05-05 15:08 1.39294 103.85176 531 ft 85 kts 36°
2026-05-05 15:09 1.39758 103.85484 378 ft 77 kts 34°
2026-05-05 15:09 1.40191 103.85772 268 ft 74 kts 33°
2026-05-05 15:09 1.40630 103.86058 152 ft 76 kts 34°
2026-05-05 15:09 1.41055 103.86335 51 ft 64 kts 34°
2026-05-05 15:10 1.41353 103.86532 49 ft 41 kts 32°
2026-05-05 15:10 1.41492 103.86609 50 ft 10 kts 354°
2026-05-05 15:10 1.41541 103.86559 49 ft 13 kts 303°
2026-05-05 15:10 1.41566 103.86521 49 ft 3 kts 302°
2026-05-05 15:11 1.41567 103.86486 49 ft 8 kts 209°
2026-05-05 15:11 1.41525 103.86459 49 ft 6 kts 211°
2026-05-05 15:11 1.41487 103.86435 49 ft 6 kts 207°
2026-05-05 15:11 1.41477 103.86406 49 ft 7 kts 259°
2026-05-05 15:12 1.41455 103.86365 49 ft 6 kts 238°
2026-05-05 15:12 1.41438 103.86357 49 ft 4 kts 148°
2026-05-05 15:12 1.41433 103.86360 49 ft 0 kts 149°